Terminal Aerodrome Forecast
Issued by NWS Omaha/Valley, NE

Home | Current Version | Previous Version | Text Only | Print | Product List | Glossary On
Versions: 1 2 3 4 5 6 7 8 9 10 11 12 13 14 15 16 17
000
FTUS43 KOAX 192320
TAFOFK
TAF
KOFK 192320Z 2000/2024 15016G23KT P6SM BKN250
     FM200200 16016G24KT P6SM SCT200 WS020/16050KT
     FM200600 28014KT P6SM SCT200
     FM200800 31010KT P6SM FEW200=

USA.gov is the U.S. government's official web portal to all federal, state and local government web resources and services.